Flight Track Log - Related Links

Times and Time Zones

All times are in EDT time to prevent confusion due to time zone crossing. See the N71RG flight status page for this flight to view local times or setup timezone preferences in your user account.


Time Position Orientation Groundspeed Altitude Reporting Facility
EDT Latitude Longitude Course Direction KTS MPH feet Rate Location/Type
Sun 10:29:47 PM 39.7167 -86.3167 218° Southwest 159 183 1,500  Level Indianapolis TRACON
Sun 10:30:05 PM 39.7000 -86.3333 218° Southwest 162 186 2,000 1,538 Climbing Indianapolis TRACON
Sun 10:31:05 PM 39.6500 -86.3333 180° South 218 251 3,500 1,587 Climbing Indianapolis TRACON
Sun 10:32:06 PM 39.5833 -86.3167 169° South 218 251 5,200 1,686 Climbing Indianapolis TRACON
Sun 10:33:06 PM 39.5333 -86.3167 180° South 218 251 6,900 1,700 Climbing Indianapolis TRACON
Sun 10:34:06 PM 39.4667 -86.3167 180° South 219 252 8,600 1,714 Climbing Indianapolis TRACON
Sun 10:35:12 PM 39.4000 -86.3000 169° South 221 254 10,500 1,143 Climbing Indianapolis TRACON
Sun 10:36:12 PM 39.3333 -86.3000 180° South 243 280 11,000 250 Climbing Indianapolis TRACON
Sun 10:37:12 PM 39.2500 -86.3000 180° South 282 325 11,000  Level Indianapolis TRACON
Sun 10:38:16 PM 39.1831 -86.2919 175° South 273 314 11,000  Level Indianapolis Center
Sun 10:39:16 PM 39.1075 -86.2844 176° South 274 315 11,000  Level Indianapolis Center
Sun 10:40:17 PM 39.0319 -86.2792 177° South 273 314 11,000  Level Indianapolis Center
Sun 10:41:18 PM 38.9411 -86.2692 175° South 273 314 11,000  Level Indianapolis Center
Sun 10:42:19 PM 38.8711 -86.2608 175° South 273 314 11,000 -49 Level Indianapolis Center
Sun 10:43:20 PM 38.7953 -86.2533 176° South 272 313 10,900  Descending Indianapolis Center
Sun 10:44:20 PM 38.7189 -86.2444 175° South 272 313 11,000 -198 Climbing Indianapolis Center
Sun 10:45:21 PM 38.6431 -86.2364 175° South 272 313 10,500 -836 Descending Indianapolis Center
Sun 10:46:22 PM 38.5664 -86.2178 169° South 284 327 9,300 -1,230 Descending Indianapolis Center
Sun 10:47:23 PM 38.5256 -86.1303 121° Southeast 284 327 8,000 -1,377 Descending Indianapolis Center
Sun 10:48:24 PM 38.4908 -86.0400 116° Southeast 283 326 6,500 -1,537 Descending Indianapolis Center
Sun 10:49:24 PM 38.4561 -85.9561 118° Southeast 275 316 4,900 -1,537 Descending Indianapolis Center
Sun 10:50:25 PM 38.4225 -85.8758 118° Southeast 263 303 3,400 -885 Descending Indianapolis Center
Sun 10:51:26 PM 38.3822 -85.7814 119° Southeast 261 300 3,100 -295 Descending Indianapolis Center
Sun 10:53:00 PM 38.3654 -85.7382 123° Southeast  Level Estimated
Sun 11:00:00 PM 38.3654 -85.7382 123° Southeast  Level Estimated
Sun 11:01:00 PM 38.3654 -85.7382 123° Southeast  Level Estimated
Sun 11:02:00 PM 38.3654 -85.7382 123° Southeast  Level Estimated

Login

Don't have an account? Register now (free) for customized features, flight alerts, and more!